sensor_id;sensor_type;location;lat;lon;timestamp;temperature;humidity
4651;DHT22;2338;49.602;8.722;2024-01-06T00:02:35;4.60;99.90
4651;DHT22;2338;49.602;8.722;2024-01-06T00:05:22;4.60;99.90
4651;DHT22;2338;49.602;8.722;2024-01-06T00:08:07;4.60;99.90
4651;DHT22;2338;49.602;8.722;2024-01-06T00:10:54;4.50;99.90
4651;DHT22;2338;49.602;8.722;2024-01-06T00:13:40;4.50;99.90
4651;DHT22;2338;49.602;8.722;2024-01-06T00:16:25;4.50;99.90
4651;DHT22;2338;49.602;8.722;2024-01-06T00:19:11;4.60;99.90
4651;DHT22;2338;49.602;8.722;2024-01-06T00:21:58;4.50;99.90
4651;DHT22;2338;49.602;8.722;2024-01-06T00:24:45;4.50;99.90
4651;DHT22;2338;49.602;8.722;2024-01-06T00:27:30;4.50;99.90
4651;DHT22;2338;49.602;8.722;2024-01-06T00:30:16;4.40;99.90
4651;DHT22;2338;49.602;8.722;2024-01-06T00:33:02;4.40;99.90
4651;DHT22;2338;49.602;8.722;2024-01-06T00:35:47;4.20;99.90
4651;DHT22;2338;49.602;8.722;2024-01-06T00:38:35;4.20;99.90
4651;DHT22;2338;49.602;8.722;2024-01-06T00:41:20;4.20;99.90
4651;DHT22;2338;49.602;8.722;2024-01-06T00:44:06;4.20;99.90
4651;DHT22;2338;49.602;8.722;2024-01-06T00:46:52;4.20;99.90
4651;DHT22;2338;49.602;8.722;2024-01-06T00:49:37;4.30;99.90
4651;DHT22;2338;49.602;8.722;2024-01-06T00:52:23;4.30;99.90
4651;DHT22;2338;49.602;8.722;2024-01-06T00:55:10;4.20;99.90
4651;DHT22;2338;49.602;8.722;2024-01-06T00:57:55;4.20;99.90
4651;DHT22;2338;49.602;8.722;2024-01-06T01:00:41;4.30;99.90
4651;DHT22;2338;49.602;8.722;2024-01-06T01:03:27;4.30;99.90
4651;DHT22;2338;49.602;8.722;2024-01-06T01:06:12;4.30;99.90
4651;DHT22;2338;49.602;8.722;2024-01-06T01:08:58;4.30;99.90
4651;DHT22;2338;49.602;8.722;2024-01-06T01:11:45;4.30;99.90
4651;DHT22;2338;49.602;8.722;2024-01-06T01:14:31;4.30;99.90
4651;DHT22;2338;49.602;8.722;2024-01-06T01:17:17;4.20;99.90
4651;DHT22;2338;49.602;8.722;2024-01-06T01:20:03;4.20;99.90
4651;DHT22;2338;49.602;8.722;2024-01-06T01:22:49;4.10;99.90
4651;DHT22;2338;49.602;8.722;2024-01-06T01:25:35;4.20;99.90
4651;DHT22;2338;49.602;8.722;2024-01-06T01:28:22;4.20;99.90
4651;DHT22;2338;49.602;8.722;2024-01-06T01:31:08;4.20;99.90
4651;DHT22;2338;49.602;8.722;2024-01-06T01:33:53;4.30;99.90
4651;DHT22;2338;49.602;8.722;2024-01-06T01:36:39;4.30;99.90
4651;DHT22;2338;49.602;8.722;2024-01-06T01:39:25;4.40;99.90
4651;DHT22;2338;49.602;8.722;2024-01-06T01:42:11;4.40;99.90
4651;DHT22;2338;49.602;8.722;2024-01-06T01:44:58;4.50;99.90
4651;DHT22;2338;49.602;8.722;2024-01-06T01:47:43;4.40;99.90
4651;DHT22;2338;49.602;8.722;2024-01-06T01:50:29;4.40;99.90
4651;DHT22;2338;49.602;8.722;2024-01-06T01:53:15;4.50;99.90
4651;DHT22;2338;49.602;8.722;2024-01-06T01:56:01;4.50;99.90
4651;DHT22;2338;49.602;8.722;2024-01-06T01:58:48;4.40;99.90
4651;DHT22;2338;49.602;8.722;2024-01-06T02:01:35;4.50;99.90
4651;DHT22;2338;49.602;8.722;2024-01-06T02:04:21;4.60;99.90
4651;DHT22;2338;49.602;8.722;2024-01-06T02:07:07;4.70;99.90
4651;DHT22;2338;49.602;8.722;2024-01-06T02:09:53;4.60;99.90
4651;DHT22;2338;49.602;8.722;2024-01-06T02:12:38;4.70;99.90
4651;DHT22;2338;49.602;8.722;2024-01-06T02:15:24;4.80;99.90
4651;DHT22;2338;49.602;8.722;2024-01-06T02:18:11;4.80;99.90
4651;DHT22;2338;49.602;8.722;2024-01-06T02:20:58;4.80;99.90
4651;DHT22;2338;49.602;8.722;2024-01-06T02:23:45;4.80;99.90
4651;DHT22;2338;49.602;8.722;2024-01-06T02:26:32;4.80;99.90
4651;DHT22;2338;49.602;8.722;2024-01-06T02:29:18;4.90;99.90
4651;DHT22;2338;49.602;8.722;2024-01-06T02:32:05;5.00;99.90
4651;DHT22;2338;49.602;8.722;2024-01-06T02:34:50;5.00;99.90
4651;DHT22;2338;49.602;8.722;2024-01-06T02:37:36;5.10;99.90
4651;DHT22;2338;49.602;8.722;2024-01-06T02:40:23;5.10;99.90
4651;DHT22;2338;49.602;8.722;2024-01-06T02:43:09;5.20;99.90
4651;DHT22;2338;49.602;8.722;2024-01-06T02:45:55;5.20;99.90
4651;DHT22;2338;49.602;8.722;2024-01-06T02:48:40;5.20;99.90
4651;DHT22;2338;49.602;8.722;2024-01-06T02:51:26;5.20;99.90
4651;DHT22;2338;49.602;8.722;2024-01-06T02:54:12;5.20;99.90
4651;DHT22;2338;49.602;8.722;2024-01-06T02:56:59;5.20;99.90
4651;DHT22;2338;49.602;8.722;2024-01-06T02:59:45;5.20;99.90
4651;DHT22;2338;49.602;8.722;2024-01-06T03:02:30;5.30;99.90
4651;DHT22;2338;49.602;8.722;2024-01-06T03:05:17;5.30;99.90
4651;DHT22;2338;49.602;8.722;2024-01-06T03:08:03;5.30;99.90
4651;DHT22;2338;49.602;8.722;2024-01-06T03:10:49;5.40;99.90
4651;DHT22;2338;49.602;8.722;2024-01-06T03:13:36;5.30;99.90
4651;DHT22;2338;49.602;8.722;2024-01-06T03:16:22;5.40;99.90
4651;DHT22;2338;49.602;8.722;2024-01-06T03:19:07;5.50;99.90
4651;DHT22;2338;49.602;8.722;2024-01-06T03:21:53;5.50;99.90
4651;DHT22;2338;49.602;8.722;2024-01-06T03:24:40;5.50;99.90
4651;DHT22;2338;49.602;8.722;2024-01-06T03:27:26;5.50;99.90
4651;DHT22;2338;49.602;8.722;2024-01-06T03:30:13;5.60;99.90
4651;DHT22;2338;49.602;8.722;2024-01-06T03:33:00;5.60;99.90
4651;DHT22;2338;49.602;8.722;2024-01-06T03:35:45;5.60;99.90
4651;DHT22;2338;49.602;8.722;2024-01-06T03:38:31;5.60;99.90
4651;DHT22;2338;49.602;8.722;2024-01-06T03:41:17;5.60;99.90
4651;DHT22;2338;49.602;8.722;2024-01-06T03:44:03;5.60;99.90
4651;DHT22;2338;49.602;8.722;2024-01-06T03:46:50;5.70;99.90
4651;DHT22;2338;49.602;8.722;2024-01-06T03:49:35;5.70;99.90
4651;DHT22;2338;49.602;8.722;2024-01-06T03:52:21;5.70;99.90
4651;DHT22;2338;49.602;8.722;2024-01-06T03:55:07;5.70;99.90
4651;DHT22;2338;49.602;8.722;2024-01-06T03:57:53;5.80;99.90
4651;DHT22;2338;49.602;8.722;2024-01-06T04:00:38;5.80;99.90
4651;DHT22;2338;49.602;8.722;2024-01-06T04:03:25;5.90;99.90
4651;DHT22;2338;49.602;8.722;2024-01-06T04:06:11;5.90;99.90
4651;DHT22;2338;49.602;8.722;2024-01-06T04:08:57;6.00;99.90
4651;DHT22;2338;49.602;8.722;2024-01-06T04:11:42;6.10;99.90
4651;DHT22;2338;49.602;8.722;2024-01-06T04:14:28;6.20;99.90
4651;DHT22;2338;49.602;8.722;2024-01-06T04:17:14;6.20;99.90
4651;DHT22;2338;49.602;8.722;2024-01-06T04:20:01;6.20;99.90
4651;DHT22;2338;49.602;8.722;2024-01-06T04:22:46;6.20;99.90
4651;DHT22;2338;49.602;8.722;2024-01-06T04:25:32;6.20;99.90
4651;DHT22;2338;49.602;8.722;2024-01-06T04:28:17;6.30;99.90
4651;DHT22;2338;49.602;8.722;2024-01-06T04:31:03;6.30;99.90
4651;DHT22;2338;49.602;8.722;2024-01-06T04:33:48;6.30;99.90
4651;DHT22;2338;49.602;8.722;2024-01-06T04:36:36;6.20;99.90
4651;DHT22;2338;49.602;8.722;2024-01-06T04:39:21;6.30;99.90
4651;DHT22;2338;49.602;8.722;2024-01-06T04:42:07;6.30;99.90
4651;DHT22;2338;49.602;8.722;2024-01-06T04:44:52;6.30;99.90
4651;DHT22;2338;49.602;8.722;2024-01-06T04:47:38;6.30;99.90
4651;DHT22;2338;49.602;8.722;2024-01-06T04:50:24;6.40;99.90
4651;DHT22;2338;49.602;8.722;2024-01-06T04:53:11;6.40;99.90
4651;DHT22;2338;49.602;8.722;2024-01-06T04:55:56;6.40;99.90
4651;DHT22;2338;49.602;8.722;2024-01-06T04:58:42;6.30;99.90
4651;DHT22;2338;49.602;8.722;2024-01-06T05:01:28;6.40;99.90
4651;DHT22;2338;49.602;8.722;2024-01-06T05:04:13;6.30;99.90
4651;DHT22;2338;49.602;8.722;2024-01-06T05:06:59;6.30;99.90
4651;DHT22;2338;49.602;8.722;2024-01-06T05:09:48;6.30;99.90
4651;DHT22;2338;49.602;8.722;2024-01-06T05:12:34;6.30;99.90
4651;DHT22;2338;49.602;8.722;2024-01-06T05:15:20;6.40;99.90
4651;DHT22;2338;49.602;8.722;2024-01-06T05:18:06;6.30;99.90
4651;DHT22;2338;49.602;8.722;2024-01-06T05:20:52;6.30;99.90
4651;DHT22;2338;49.602;8.722;2024-01-06T05:23:38;6.30;99.90
4651;DHT22;2338;49.602;8.722;2024-01-06T05:26:27;6.30;99.90
4651;DHT22;2338;49.602;8.722;2024-01-06T05:29:13;6.40;99.90
4651;DHT22;2338;49.602;8.722;2024-01-06T05:31:59;6.30;99.90
4651;DHT22;2338;49.602;8.722;2024-01-06T05:34:45;6.40;99.90
4651;DHT22;2338;49.602;8.722;2024-01-06T05:37:31;6.40;99.90
4651;DHT22;2338;49.602;8.722;2024-01-06T05:40:17;6.40;99.90
4651;DHT22;2338;49.602;8.722;2024-01-06T05:43:05;6.50;99.90
4651;DHT22;2338;49.602;8.722;2024-01-06T05:45:51;6.50;99.90
4651;DHT22;2338;49.602;8.722;2024-01-06T05:48:37;6.40;99.90
4651;DHT22;2338;49.602;8.722;2024-01-06T05:51:26;6.40;99.90
4651;DHT22;2338;49.602;8.722;2024-01-06T05:54:12;6.50;99.90
4651;DHT22;2338;49.602;8.722;2024-01-06T05:56:58;6.50;99.90
4651;DHT22;2338;49.602;8.722;2024-01-06T05:59:46;6.50;99.90
4651;DHT22;2338;49.602;8.722;2024-01-06T06:02:32;6.50;99.90
4651;DHT22;2338;49.602;8.722;2024-01-06T06:05:19;6.40;99.90
4651;DHT22;2338;49.602;8.722;2024-01-06T06:08:05;6.50;99.90
4651;DHT22;2338;49.602;8.722;2024-01-06T06:10:51;6.50;99.90
4651;DHT22;2338;49.602;8.722;2024-01-06T06:13:45;6.50;99.90
4651;DHT22;2338;49.602;8.722;2024-01-06T06:16:33;6.50;99.90
4651;DHT22;2338;49.602;8.722;2024-01-06T06:19:20;6.50;99.90
4651;DHT22;2338;49.602;8.722;2024-01-06T06:22:05;6.50;99.90
4651;DHT22;2338;49.602;8.722;2024-01-06T06:24:53;6.50;99.90
4651;DHT22;2338;49.602;8.722;2024-01-06T06:27:39;6.60;99.90
4651;DHT22;2338;49.602;8.722;2024-01-06T06:30:25;6.50;99.90
4651;DHT22;2338;49.602;8.722;2024-01-06T06:33:14;6.50;99.90
4651;DHT22;2338;49.602;8.722;2024-01-06T06:36:01;6.50;99.90
4651;DHT22;2338;49.602;8.722;2024-01-06T06:38:47;6.50;99.90
4651;DHT22;2338;49.602;8.722;2024-01-06T06:41:49;6.50;99.90
4651;DHT22;2338;49.602;8.722;2024-01-06T06:45:19;6.50;99.90
4651;DHT22;2338;49.602;8.722;2024-01-06T06:48:33;6.50;99.90
4651;DHT22;2338;49.602;8.722;2024-01-06T06:51:35;6.50;99.90
4651;DHT22;2338;49.602;8.722;2024-01-06T06:54:36;6.50;99.90
4651;DHT22;2338;49.602;8.722;2024-01-06T06:57:25;6.50;99.90
4651;DHT22;2338;49.602;8.722;2024-01-06T07:04:24;6.50;99.90
4651;DHT22;2338;49.602;8.722;2024-01-06T07:07:14;6.50;99.90
4651;DHT22;2338;49.602;8.722;2024-01-06T07:10:21;6.50;99.90
4651;DHT22;2338;49.602;8.722;2024-01-06T07:13:11;6.50;99.90
4651;DHT22;2338;49.602;8.722;2024-01-06T07:15:57;6.50;99.90
4651;DHT22;2338;49.602;8.722;2024-01-06T07:18:42;6.50;99.90
4651;DHT22;2338;49.602;8.722;2024-01-06T07:21:30;6.40;99.90
4651;DHT22;2338;49.602;8.722;2024-01-06T07:24:15;6.40;99.90
4651;DHT22;2338;49.602;8.722;2024-01-06T07:27:02;6.50;99.90
4651;DHT22;2338;49.602;8.722;2024-01-06T07:29:48;6.50;99.90
4651;DHT22;2338;49.602;8.722;2024-01-06T07:32:34;6.50;99.90
4651;DHT22;2338;49.602;8.722;2024-01-06T07:35:20;6.50;99.90
4651;DHT22;2338;49.602;8.722;2024-01-06T07:38:07;6.50;99.90
4651;DHT22;2338;49.602;8.722;2024-01-06T07:40:54;6.40;99.90
4651;DHT22;2338;49.602;8.722;2024-01-06T07:43:39;6.50;99.90
4651;DHT22;2338;49.602;8.722;2024-01-06T07:46:25;6.50;99.90
4651;DHT22;2338;49.602;8.722;2024-01-06T07:49:11;6.50;99.90
4651;DHT22;2338;49.602;8.722;2024-01-06T07:51:57;6.50;99.90
4651;DHT22;2338;49.602;8.722;2024-01-06T07:54:44;6.40;99.90
4651;DHT22;2338;49.602;8.722;2024-01-06T07:57:29;6.50;99.90
4651;DHT22;2338;49.602;8.722;2024-01-06T08:00:15;6.60;99.90
4651;DHT22;2338;49.602;8.722;2024-01-06T08:03:01;6.60;99.90
4651;DHT22;2338;49.602;8.722;2024-01-06T08:05:50;6.60;99.90
4651;DHT22;2338;49.602;8.722;2024-01-06T08:08:36;6.60;99.90
4651;DHT22;2338;49.602;8.722;2024-01-06T08:11:23;6.60;99.90
4651;DHT22;2338;49.602;8.722;2024-01-06T08:14:08;6.60;99.90
4651;DHT22;2338;49.602;8.722;2024-01-06T08:16:55;6.60;99.90
4651;DHT22;2338;49.602;8.722;2024-01-06T08:19:40;6.60;99.90
4651;DHT22;2338;49.602;8.722;2024-01-06T08:22:27;6.60;99.90
4651;DHT22;2338;49.602;8.722;2024-01-06T08:25:12;6.70;99.90
4651;DHT22;2338;49.602;8.722;2024-01-06T08:27:59;6.70;99.90
4651;DHT22;2338;49.602;8.722;2024-01-06T08:30:46;6.70;99.90
4651;DHT22;2338;49.602;8.722;2024-01-06T08:33:31;6.70;99.90
4651;DHT22;2338;49.602;8.722;2024-01-06T08:36:17;6.70;99.90
4651;DHT22;2338;49.602;8.722;2024-01-06T08:39:03;6.70;99.90
4651;DHT22;2338;49.602;8.722;2024-01-06T08:41:49;6.70;99.90
4651;DHT22;2338;49.602;8.722;2024-01-06T08:44:36;6.70;99.90
4651;DHT22;2338;49.602;8.722;2024-01-06T08:47:21;6.70;99.90
4651;DHT22;2338;49.602;8.722;2024-01-06T08:50:07;6.70;99.90
4651;DHT22;2338;49.602;8.722;2024-01-06T08:52:53;6.70;99.90
4651;DHT22;2338;49.602;8.722;2024-01-06T08:55:39;6.80;99.90
4651;DHT22;2338;49.602;8.722;2024-01-06T08:58:24;6.80;99.90
4651;DHT22;2338;49.602;8.722;2024-01-06T09:01:12;6.90;99.90
4651;DHT22;2338;49.602;8.722;2024-01-06T09:03:58;6.90;99.90
4651;DHT22;2338;49.602;8.722;2024-01-06T09:06:44;6.80;99.90
4651;DHT22;2338;49.602;8.722;2024-01-06T09:09:31;6.80;99.90
4651;DHT22;2338;49.602;8.722;2024-01-06T09:12:16;6.80;99.90
4651;DHT22;2338;49.602;8.722;2024-01-06T09:15:02;6.90;99.90
4651;DHT22;2338;49.602;8.722;2024-01-06T09:17:49;6.80;99.90
4651;DHT22;2338;49.602;8.722;2024-01-06T09:20:35;6.90;99.90
4651;DHT22;2338;49.602;8.722;2024-01-06T09:23:20;6.90;99.90
4651;DHT22;2338;49.602;8.722;2024-01-06T09:26:06;6.80;99.90
4651;DHT22;2338;49.602;8.722;2024-01-06T09:28:52;6.80;99.90
4651;DHT22;2338;49.602;8.722;2024-01-06T09:31:38;6.80;99.90
4651;DHT22;2338;49.602;8.722;2024-01-06T09:34:25;6.70;99.90
4651;DHT22;2338;49.602;8.722;2024-01-06T09:37:10;6.80;99.90
4651;DHT22;2338;49.602;8.722;2024-01-06T09:39:56;6.80;99.90
4651;DHT22;2338;49.602;8.722;2024-01-06T09:42:42;6.80;99.90
4651;DHT22;2338;49.602;8.722;2024-01-06T09:45:28;6.80;99.90
4651;DHT22;2338;49.602;8.722;2024-01-06T09:48:14;6.90;99.90
4651;DHT22;2338;49.602;8.722;2024-01-06T09:51:03;6.90;99.90
4651;DHT22;2338;49.602;8.722;2024-01-06T09:53:57;6.80;99.90
4651;DHT22;2338;49.602;8.722;2024-01-06T09:56:45;6.90;99.90
4651;DHT22;2338;49.602;8.722;2024-01-06T09:59:32;6.90;99.90
4651;DHT22;2338;49.602;8.722;2024-01-06T10:02:18;7.00;99.90
4651;DHT22;2338;49.602;8.722;2024-01-06T10:05:07;7.00;99.90
4651;DHT22;2338;49.602;8.722;2024-01-06T10:07:54;7.10;99.90
4651;DHT22;2338;49.602;8.722;2024-01-06T10:10:40;7.10;99.90
4651;DHT22;2338;49.602;8.722;2024-01-06T10:13:26;7.00;99.90
4651;DHT22;2338;49.602;8.722;2024-01-06T10:16:12;7.00;99.90
4651;DHT22;2338;49.602;8.722;2024-01-06T10:18:58;7.00;99.90
4651;DHT22;2338;49.602;8.722;2024-01-06T10:21:44;7.00;99.90
4651;DHT22;2338;49.602;8.722;2024-01-06T10:24:31;7.10;99.90
4651;DHT22;2338;49.602;8.722;2024-01-06T10:27:17;7.10;99.90
4651;DHT22;2338;49.602;8.722;2024-01-06T10:30:03;7.10;99.90
4651;DHT22;2338;49.602;8.722;2024-01-06T10:32:50;7.10;99.90
4651;DHT22;2338;49.602;8.722;2024-01-06T10:35:37;7.20;99.90
4651;DHT22;2338;49.602;8.722;2024-01-06T10:38:22;7.20;99.90
4651;DHT22;2338;49.602;8.722;2024-01-06T10:41:11;7.20;99.90
4651;DHT22;2338;49.602;8.722;2024-01-06T10:44:00;7.20;99.90
4651;DHT22;2338;49.602;8.722;2024-01-06T10:46:47;7.20;99.90
4651;DHT22;2338;49.602;8.722;2024-01-06T10:49:34;7.30;99.90
4651;DHT22;2338;49.602;8.722;2024-01-06T10:52:21;7.30;99.90
4651;DHT22;2338;49.602;8.722;2024-01-06T10:55:08;7.30;99.90
4651;DHT22;2338;49.602;8.722;2024-01-06T10:57:55;7.30;99.90
4651;DHT22;2338;49.602;8.722;2024-01-06T11:00:41;7.30;99.90
4651;DHT22;2338;49.602;8.722;2024-01-06T11:03:29;7.30;99.90
4651;DHT22;2338;49.602;8.722;2024-01-06T11:06:14;7.30;99.90
4651;DHT22;2338;49.602;8.722;2024-01-06T11:09:06;7.30;99.90
4651;DHT22;2338;49.602;8.722;2024-01-06T11:11:54;7.30;99.90
4651;DHT22;2338;49.602;8.722;2024-01-06T11:14:43;7.40;99.90
4651;DHT22;2338;49.602;8.722;2024-01-06T11:17:49;7.50;99.90
4651;DHT22;2338;49.602;8.722;2024-01-06T11:20:34;7.40;99.90
4651;DHT22;2338;49.602;8.722;2024-01-06T11:23:20;7.40;99.90
4651;DHT22;2338;49.602;8.722;2024-01-06T11:26:06;7.40;99.90
4651;DHT22;2338;49.602;8.722;2024-01-06T11:28:52;7.40;99.90
4651;DHT22;2338;49.602;8.722;2024-01-06T11:31:41;7.30;99.90
4651;DHT22;2338;49.602;8.722;2024-01-06T11:34:30;7.40;99.90
4651;DHT22;2338;49.602;8.722;2024-01-06T11:37:19;7.40;99.90
4651;DHT22;2338;49.602;8.722;2024-01-06T11:40:09;7.30;99.90
4651;DHT22;2338;49.602;8.722;2024-01-06T11:42:59;7.30;99.90
4651;DHT22;2338;49.602;8.722;2024-01-06T11:45:45;7.30;99.90
4651;DHT22;2338;49.602;8.722;2024-01-06T11:48:32;7.40;99.90
4651;DHT22;2338;49.602;8.722;2024-01-06T11:51:18;7.40;99.90
4651;DHT22;2338;49.602;8.722;2024-01-06T11:54:04;7.40;99.90
4651;DHT22;2338;49.602;8.722;2024-01-06T11:56:50;7.50;99.90
4651;DHT22;2338;49.602;8.722;2024-01-06T11:59:37;7.50;99.90
4651;DHT22;2338;49.602;8.722;2024-01-06T12:02:23;7.40;99.90
4651;DHT22;2338;49.602;8.722;2024-01-06T12:05:14;7.40;99.90
4651;DHT22;2338;49.602;8.722;2024-01-06T12:08:02;7.40;99.90
4651;DHT22;2338;49.602;8.722;2024-01-06T12:10:51;7.40;99.90
4651;DHT22;2338;49.602;8.722;2024-01-06T12:13:46;7.50;99.90
4651;DHT22;2338;49.602;8.722;2024-01-06T12:16:32;7.60;99.90
4651;DHT22;2338;49.602;8.722;2024-01-06T12:19:18;7.60;99.90
4651;DHT22;2338;49.602;8.722;2024-01-06T12:22:06;7.60;99.90
4651;DHT22;2338;49.602;8.722;2024-01-06T12:24:51;7.60;99.90
4651;DHT22;2338;49.602;8.722;2024-01-06T12:27:42;7.60;99.90
4651;DHT22;2338;49.602;8.722;2024-01-06T12:30:28;7.50;99.90
4651;DHT22;2338;49.602;8.722;2024-01-06T12:33:14;7.50;99.90
4651;DHT22;2338;49.602;8.722;2024-01-06T12:36:00;7.40;99.90
4651;DHT22;2338;49.602;8.722;2024-01-06T12:38:47;7.50;99.90
4651;DHT22;2338;49.602;8.722;2024-01-06T12:41:32;7.50;99.90
4651;DHT22;2338;49.602;8.722;2024-01-06T12:44:19;7.50;99.90
4651;DHT22;2338;49.602;8.722;2024-01-06T12:47:04;7.40;99.90
4651;DHT22;2338;49.602;8.722;2024-01-06T12:49:50;7.40;99.90
4651;DHT22;2338;49.602;8.722;2024-01-06T12:52:36;7.40;99.90
4651;DHT22;2338;49.602;8.722;2024-01-06T12:55:24;7.40;99.90
4651;DHT22;2338;49.602;8.722;2024-01-06T12:58:10;7.50;99.90
4651;DHT22;2338;49.602;8.722;2024-01-06T13:00:55;7.50;99.90
4651;DHT22;2338;49.602;8.722;2024-01-06T13:03:41;7.50;99.90
4651;DHT22;2338;49.602;8.722;2024-01-06T13:06:27;7.50;99.90
4651;DHT22;2338;49.602;8.722;2024-01-06T13:09:13;7.50;99.90
4651;DHT22;2338;49.602;8.722;2024-01-06T13:12:01;7.50;99.90
4651;DHT22;2338;49.602;8.722;2024-01-06T13:14:47;7.60;99.90
4651;DHT22;2338;49.602;8.722;2024-01-06T13:17:33;7.60;99.90
4651;DHT22;2338;49.602;8.722;2024-01-06T13:20:19;7.70;99.90
4651;DHT22;2338;49.602;8.722;2024-01-06T13:23:05;7.70;99.90
4651;DHT22;2338;49.602;8.722;2024-01-06T13:25:50;7.70;99.90
4651;DHT22;2338;49.602;8.722;2024-01-06T13:28:37;7.60;99.90
4651;DHT22;2338;49.602;8.722;2024-01-06T13:31:23;7.50;99.90
4651;DHT22;2338;49.602;8.722;2024-01-06T13:34:09;7.50;99.90
4651;DHT22;2338;49.602;8.722;2024-01-06T13:36:54;7.50;99.90
4651;DHT22;2338;49.602;8.722;2024-01-06T13:39:41;7.60;99.90
4651;DHT22;2338;49.602;8.722;2024-01-06T13:42:27;7.50;99.90
4651;DHT22;2338;49.602;8.722;2024-01-06T13:45:14;7.50;99.90
4651;DHT22;2338;49.602;8.722;2024-01-06T13:47:59;7.50;99.90
4651;DHT22;2338;49.602;8.722;2024-01-06T13:50:46;7.50;99.90
4651;DHT22;2338;49.602;8.722;2024-01-06T13:53:32;7.50;99.90
4651;DHT22;2338;49.602;8.722;2024-01-06T13:56:22;7.50;99.90
4651;DHT22;2338;49.602;8.722;2024-01-06T13:59:08;7.50;99.90
4651;DHT22;2338;49.602;8.722;2024-01-06T14:01:55;7.60;99.90
4651;DHT22;2338;49.602;8.722;2024-01-06T14:04:40;7.60;99.90
4651;DHT22;2338;49.602;8.722;2024-01-06T14:07:26;7.60;99.90
4651;DHT22;2338;49.602;8.722;2024-01-06T14:10:12;7.60;99.90
4651;DHT22;2338;49.602;8.722;2024-01-06T14:12:58;7.50;99.90
4651;DHT22;2338;49.602;8.722;2024-01-06T14:15:44;7.60;99.90
4651;DHT22;2338;49.602;8.722;2024-01-06T14:18:31;7.50;99.90
4651;DHT22;2338;49.602;8.722;2024-01-06T14:21:18;7.60;99.90
4651;DHT22;2338;49.602;8.722;2024-01-06T14:24:04;7.60;99.90
4651;DHT22;2338;49.602;8.722;2024-01-06T14:26:51;7.50;99.90
4651;DHT22;2338;49.602;8.722;2024-01-06T14:29:37;7.50;99.90
4651;DHT22;2338;49.602;8.722;2024-01-06T14:32:23;7.60;99.90
4651;DHT22;2338;49.602;8.722;2024-01-06T14:35:10;7.60;99.90
4651;DHT22;2338;49.602;8.722;2024-01-06T14:37:57;7.60;99.90
4651;DHT22;2338;49.602;8.722;2024-01-06T14:40:43;7.50;99.90
4651;DHT22;2338;49.602;8.722;2024-01-06T14:43:28;7.50;99.90
4651;DHT22;2338;49.602;8.722;2024-01-06T14:46:14;7.50;99.90
4651;DHT22;2338;49.602;8.722;2024-01-06T14:49:00;7.60;99.90
4651;DHT22;2338;49.602;8.722;2024-01-06T14:51:47;7.70;99.90
4651;DHT22;2338;49.602;8.722;2024-01-06T14:54:32;7.70;99.90
4651;DHT22;2338;49.602;8.722;2024-01-06T14:57:19;7.70;99.90
4651;DHT22;2338;49.602;8.722;2024-01-06T15:00:06;7.70;99.90
4651;DHT22;2338;49.602;8.722;2024-01-06T15:02:54;7.70;99.90
4651;DHT22;2338;49.602;8.722;2024-01-06T15:05:40;7.60;99.90
4651;DHT22;2338;49.602;8.722;2024-01-06T15:08:27;7.60;99.90
4651;DHT22;2338;49.602;8.722;2024-01-06T15:11:13;7.60;99.90
4651;DHT22;2338;49.602;8.722;2024-01-06T15:13:58;7.50;99.90
4651;DHT22;2338;49.602;8.722;2024-01-06T15:16:48;7.50;99.90
4651;DHT22;2338;49.602;8.722;2024-01-06T15:19:34;7.50;99.90
4651;DHT22;2338;49.602;8.722;2024-01-06T15:22:21;7.50;99.90
4651;DHT22;2338;49.602;8.722;2024-01-06T15:25:09;7.50;99.90
4651;DHT22;2338;49.602;8.722;2024-01-06T15:27:55;7.50;99.90
4651;DHT22;2338;49.602;8.722;2024-01-06T15:30:40;7.50;99.90
4651;DHT22;2338;49.602;8.722;2024-01-06T15:33:26;7.50;99.90
4651;DHT22;2338;49.602;8.722;2024-01-06T15:36:12;7.50;99.90
4651;DHT22;2338;49.602;8.722;2024-01-06T15:38:58;7.60;99.90
4651;DHT22;2338;49.602;8.722;2024-01-06T15:41:45;7.70;99.90
4651;DHT22;2338;49.602;8.722;2024-01-06T15:44:30;7.70;99.90
4651;DHT22;2338;49.602;8.722;2024-01-06T15:47:18;7.60;99.90
4651;DHT22;2338;49.602;8.722;2024-01-06T15:50:04;7.50;99.90
4651;DHT22;2338;49.602;8.722;2024-01-06T15:52:51;7.40;99.90
4651;DHT22;2338;49.602;8.722;2024-01-06T15:55:37;7.40;99.90
4651;DHT22;2338;49.602;8.722;2024-01-06T15:58:24;7.40;99.90
4651;DHT22;2338;49.602;8.722;2024-01-06T16:01:10;7.40;99.90
4651;DHT22;2338;49.602;8.722;2024-01-06T16:03:55;7.40;99.90
4651;DHT22;2338;49.602;8.722;2024-01-06T16:06:41;7.40;99.90
4651;DHT22;2338;49.602;8.722;2024-01-06T16:09:27;7.40;99.90
4651;DHT22;2338;49.602;8.722;2024-01-06T16:12:13;7.40;99.90
4651;DHT22;2338;49.602;8.722;2024-01-06T16:15:01;7.30;99.90
4651;DHT22;2338;49.602;8.722;2024-01-06T16:17:47;7.30;99.90
4651;DHT22;2338;49.602;8.722;2024-01-06T16:20:33;7.30;99.90
4651;DHT22;2338;49.602;8.722;2024-01-06T16:23:19;7.30;99.90
4651;DHT22;2338;49.602;8.722;2024-01-06T16:26:08;7.20;99.90
4651;DHT22;2338;49.602;8.722;2024-01-06T16:28:54;7.30;99.90
4651;DHT22;2338;49.602;8.722;2024-01-06T16:31:41;7.30;99.90
4651;DHT22;2338;49.602;8.722;2024-01-06T16:34:27;7.30;99.90
4651;DHT22;2338;49.602;8.722;2024-01-06T16:37:13;7.20;99.90
4651;DHT22;2338;49.602;8.722;2024-01-06T16:40:01;7.20;99.90
4651;DHT22;2338;49.602;8.722;2024-01-06T16:42:46;7.10;99.90
4651;DHT22;2338;49.602;8.722;2024-01-06T16:45:36;7.20;99.90
4651;DHT22;2338;49.602;8.722;2024-01-06T16:48:23;7.20;99.90
4651;DHT22;2338;49.602;8.722;2024-01-06T16:51:08;7.20;99.90
4651;DHT22;2338;49.602;8.722;2024-01-06T16:53:54;7.20;99.90
4651;DHT22;2338;49.602;8.722;2024-01-06T16:56:39;7.20;99.90
4651;DHT22;2338;49.602;8.722;2024-01-06T16:59:27;7.10;99.90
4651;DHT22;2338;49.602;8.722;2024-01-06T17:02:12;7.10;99.90
4651;DHT22;2338;49.602;8.722;2024-01-06T17:04:59;7.10;99.90
4651;DHT22;2338;49.602;8.722;2024-01-06T17:07:45;7.10;99.90
4651;DHT22;2338;49.602;8.722;2024-01-06T17:10:31;7.20;99.90
4651;DHT22;2338;49.602;8.722;2024-01-06T17:13:17;7.20;99.90
4651;DHT22;2338;49.602;8.722;2024-01-06T17:16:04;7.20;99.90
4651;DHT22;2338;49.602;8.722;2024-01-06T17:18:50;7.20;99.90
4651;DHT22;2338;49.602;8.722;2024-01-06T17:21:37;7.20;99.90
4651;DHT22;2338;49.602;8.722;2024-01-06T17:24:23;7.30;99.90
4651;DHT22;2338;49.602;8.722;2024-01-06T17:27:08;7.20;99.90
4651;DHT22;2338;49.602;8.722;2024-01-06T17:29:54;7.30;99.90
4651;DHT22;2338;49.602;8.722;2024-01-06T17:32:40;7.40;99.90
4651;DHT22;2338;49.602;8.722;2024-01-06T17:35:25;7.30;99.90
4651;DHT22;2338;49.602;8.722;2024-01-06T17:38:12;7.30;99.90
4651;DHT22;2338;49.602;8.722;2024-01-06T17:40:58;7.20;99.90
4651;DHT22;2338;49.602;8.722;2024-01-06T17:43:44;7.20;99.90
4651;DHT22;2338;49.602;8.722;2024-01-06T17:46:31;7.10;99.90
4651;DHT22;2338;49.602;8.722;2024-01-06T17:49:18;7.10;99.90
4651;DHT22;2338;49.602;8.722;2024-01-06T17:52:04;7.10;99.90
4651;DHT22;2338;49.602;8.722;2024-01-06T17:54:51;7.10;99.90
4651;DHT22;2338;49.602;8.722;2024-01-06T17:57:36;7.10;99.90
4651;DHT22;2338;49.602;8.722;2024-01-06T18:00:22;7.20;99.90
4651;DHT22;2338;49.602;8.722;2024-01-06T18:03:08;7.20;99.90
4651;DHT22;2338;49.602;8.722;2024-01-06T18:05:53;7.20;99.90
4651;DHT22;2338;49.602;8.722;2024-01-06T18:08:39;7.30;99.90
4651;DHT22;2338;49.602;8.722;2024-01-06T18:11:26;7.20;99.90
4651;DHT22;2338;49.602;8.722;2024-01-06T18:14:12;7.30;99.90
4651;DHT22;2338;49.602;8.722;2024-01-06T18:16:57;7.20;99.90
4651;DHT22;2338;49.602;8.722;2024-01-06T18:19:43;7.20;99.90
4651;DHT22;2338;49.602;8.722;2024-01-06T18:22:29;7.20;99.90
4651;DHT22;2338;49.602;8.722;2024-01-06T18:25:15;7.20;99.90
4651;DHT22;2338;49.602;8.722;2024-01-06T18:28:02;7.20;99.90
4651;DHT22;2338;49.602;8.722;2024-01-06T18:30:48;7.20;99.90